• Join FlightAware (Why Join?)
  • Login
  • US Flag 
02:56AM EST


 

Airport Tracker/Info


-or-


 

Live Flight TrackerFlight Track Log ✈ UAL582 ✈ 06-Mar-2014 ✈ KEWR - KPHX

Flight Track Log - Related Links

Times and Time Zones

All times are in EST time to prevent confusion due to time zone crossing. See the UAL582 flight status page for this flight to view local times or setup timezone preferences in your user account.

Time Position Orientation Groundspeed Altitude Reporting Facility
EST Latitude Longitude Course Direction KTS MPH feet Rate Location/Type
08:15AM 40.7167 -74.1333 270° West 173 199 2,000  Level New York TRACON
08:16AM 40.7667 -74.2000 315° West 243 280 4,400 2,700 Climbing New York TRACON
08:17AM 40.7773 -74.5467 282° West  Level FlightAware Approximate
08:17AM 40.7833 -74.2833 285° West 262 302 7,500  Level New York TRACON
08:18AM 40.8007 -74.6862 287° West  Level FlightAware Approximate
08:18AM 40.8000 -74.3667 285° West 257 296 10,800  Level New York TRACON
08:19AM 40.8323 -74.8229 287° West  Level FlightAware Approximate
08:19AM 40.8500 -74.4333 315° West 275 316 12,000  Level New York TRACON
08:20AM 40.8667 -74.9558 270° West  Level FlightAware Approximate
08:20AM 40.9228 -74.3961 21° North 290 334 14,400  Level New York Center
08:21AM 40.9878 -74.4489 329° Northwest 243 280 15,000 300 Climbing New York Center
08:22AM 40.9808 -74.5339 264° West 211 243 15,000 300 Level New York Center
08:23AM 40.9097 -74.6039 217° Southwest 229 264 15,600 900 Climbing New York Center
08:24AM 40.8986 -74.6886 260° West 254 292 16,900 660 Climbing New York Center
08:25AM 40.9036 -74.7931 274° West 259 298 17,000 360 Climbing New York Center
08:26AM 40.9083 -74.8922 274° West 274 315 17,700 600 Climbing New York Center
08:27AM 40.9111 -74.9967 272° West 303 349 18,300 1,320 Climbing New York Center
08:28AM 40.9167 -75.1289 273° West 322 371 20,400 2,100 Climbing New York Center
08:29AM 40.8994 -75.2514 260° West 327 376 22,600 2,040 Climbing New York Center
08:30AM 40.8742 -75.3706 254° West 338 389 24,500 1,740 Climbing New York Center
08:31AM 40.8464 -75.4919 253° West 338 389 26,100 1,500 Climbing New York Center
08:32AM 40.8164 -75.6133 252° West 343 395 27,500 900 Climbing New York Center
08:33AM 40.7864 -75.7372 252° West 349 402 28,000 240 Climbing New York Center
08:34AM 40.7581 -75.8639 254° West 354 407 28,000 240 Level New York Center
08:35AM 40.7256 -75.9903 251° West 359 413 28,500 780 Climbing New York Center
08:36AM 40.6947 -76.1194 253° West 359 413 29,600 1,080 Climbing New York Center
08:37AM 40.6658 -76.2483 254° West 370 426 30,700 1,380 Climbing New York Center
08:38AM 40.6408 -76.3806 256° West 377 434 32,400 1,560 Climbing New York Center
08:39AM 40.6511 -76.5153 276° West 365 420 33,900 1,080 Climbing New York Center
08:40AM 40.6669 -76.6181 282° West 365 420 34,600 660 Climbing New York Center
08:41AM 40.6867 -76.7647 280° West 365 420 35,300 660 Climbing New York Center
08:42AM 40.7072 -76.8925 282° West 371 427 36,000 300 Climbing New York Center
08:43AM 40.7253 -77.0228 280° West 371 427 36,000  Level New York Center
08:44AM 40.7456 -77.1508 282° West 371 427 36,000  Level New York Center
08:45AM 40.7636 -77.2811 280° West 366 421 36,000  Level New York Center
08:46AM 40.7850 -77.4203 282° West 361 415 36,000  Level New York Center
08:48AM 40.8167 -77.6433 281° West 360 414 36,000  Level Cleveland Center
08:49AM 40.8344 -77.7725 280° West 360 414 36,000  Level Cleveland Center
08:50AM 40.8531 -77.9022 281° West 360 414 36,000  Level Cleveland Center
08:51AM 40.8703 -78.0331 280° West 360 414 36,000 -60 Level Cleveland Center
08:52AM 40.8886 -78.1636 281° West 362 417 35,900  Descending Cleveland Center
08:53AM 40.9092 -78.3228 280° West 364 419 36,000  Climbing Cleveland Center
08:54AM 40.9250 -78.4525 279° West 363 418 36,000  Level Cleveland Center
08:55AM 40.9236 -78.5833 269° West 359 413 36,000  Level Cleveland Center
08:56AM 40.9222 -78.7150 269° West 359 413 36,000  Level Cleveland Center
08:57AM 40.9183 -78.8478 268° West 360 414 36,000  Level Cleveland Center
08:58AM 40.9156 -78.9789 268° West 360 414 36,000  Level Cleveland Center
08:59AM 40.9117 -79.1372 268° West 362 417 36,000  Level Cleveland Center
09:00AM 40.9069 -79.2692 267° West 362 417 36,000  Level Cleveland Center
09:01AM 40.9042 -79.4006 268° West 361 415 36,000  Level Cleveland Center
09:02AM 40.8994 -79.5333 267° West 361 415 36,000  Level Cleveland Center
09:03AM 40.8964 -79.6661 268° West 362 417 36,000  Level Cleveland Center
09:04AM 40.8906 -79.8244 267° West 362 417 36,000  Level Cleveland Center
09:05AM 40.8861 -79.9575 268° West 364 419 36,000  Level Cleveland Center
09:06AM 40.8817 -80.0903 268° West 364 419 36,000  Level Cleveland Center
09:07AM 40.8772 -80.2239 268° West 365 420 36,000  Level Cleveland Center
09:08AM 40.8725 -80.3586 267° West 367 422 36,000  Level Cleveland Center
09:09AM 40.8667 -80.5203 267° West 368 423 36,000  Level Cleveland Center
09:10AM 40.8619 -80.6581 267° West 370 426 36,000  Level Cleveland Center
09:11AM 40.8569 -80.7906 267° West 371 427 36,000  Level Cleveland Center
09:12AM 40.8506 -80.9267 266° West 371 427 36,000  Level Cleveland Center
09:13AM 40.8442 -81.0708 267° West 371 427 36,000  Level Cleveland Center
09:14AM 40.8378 -81.2092 267° West 373 429 36,000  Level Cleveland Center
09:16AM 40.8308 -81.3469 266° West 373 429 36,000  Level Cleveland Center
09:17AM 40.8247 -81.4833 267° West 370 426 36,000  Level Cleveland Center
09:18AM 40.8175 -81.6211 266° West 370 426 36,000  Level Cleveland Center
09:19AM 40.8097 -81.7808 266° West 369 425 36,000  Level Cleveland Center
09:20AM 40.8031 -81.9189 266° West 370 426 36,000  Level Cleveland Center
09:21AM 40.7958 -82.0575 266° West 370 426 36,000  Level Cleveland Center
09:22AM 40.7883 -82.1958 266° West 371 427 36,000  Level Cleveland Center
09:23AM 40.7814 -82.3350 266° West 373 429 36,000  Level Cleveland Center
09:24AM 40.7742 -82.4753 266° West 377 434 36,000  Level Cleveland Center
09:25AM 40.7664 -82.6142 266° West 378 435 36,000  Level Cleveland Center
09:26AM 40.7581 -82.7525 265° West 376 433 36,000  Level Cleveland Center
09:27AM 40.7506 -82.8956 266° West 377 434 36,000  Level Cleveland Center
09:28AM 40.7425 -83.0333 266° West 377 434 36,000  Level Cleveland Center
09:29AM 40.7339 -83.1700 265° West 377 434 36,000  Level Cleveland Center
09:30AM 40.7247 -83.3367 266° West 379 436 36,000 -300 Level Cleveland Center
09:31AM 40.7153 -83.4708 265° West 375 432 35,500 -600 Descending Cleveland Center
09:31AM 40.7122 -83.5256 266° West 377 434 35,100 -960 Descending Indianapolis Center
09:33AM 40.7047 -83.6628 266° West 377 434 34,100 -540 Descending Indianapolis Center
09:34AM 40.6933 -83.8244 265° West 375 432 34,000 -60 Descending Indianapolis Center
09:35AM 40.6856 -83.9600 266° West 374 430 34,000  Level Indianapolis Center
09:36AM 40.6756 -84.0958 264° West 375 432 34,000  Level Indianapolis Center
09:37AM 40.6658 -84.2331 265° West 375 432 34,000  Level Indianapolis Center
09:38AM 40.6558 -84.3708 265° West 376 433 34,000  Level Indianapolis Center
09:39AM 40.6431 -84.5378 264° West 380 437 34,000  Level Indianapolis Center
09:40AM 40.6361 -84.6353 265° West 383 441 34,000 -300 Level Chicago Center
09:41AM 40.6264 -84.7658 264° West 381 438 33,500 -1,020 Descending Chicago Center
09:42AM 40.6142 -84.9311 264° West 381 438 32,000 -780 Descending Chicago Center
09:43AM 40.6033 -85.0739 264° West 391 450 32,000  Level Chicago Center
09:44AM 40.5925 -85.2167 264° West 394 453 32,000  Level Chicago Center
09:45AM 40.5814 -85.3583 264° West 392 451 32,000  Level Chicago Center
09:46AM 40.5700 -85.4981 264° West 388 447 32,000  Level Chicago Center
09:47AM 40.5592 -85.6369 264° West 384 442 32,000  Level Chicago Center
09:48AM 40.5456 -85.8042 264° West 387 445 32,000  Level Chicago Center
09:49AM 40.5344 -85.9442 264° West 387 445 32,000  Level Chicago Center
09:50AM 40.5217 -86.0858 263° West 391 450 32,000  Level Chicago Center
09:51AM 40.5103 -86.2269 264° West 392 451 32,000  Level Chicago Center
09:52AM 40.4969 -86.3678 263° West 392 451 32,000  Level Chicago Center
09:53AM 40.4825 -86.5381 264° West 394 453 32,000  Level Chicago Center
09:54AM 40.4692 -86.6797 263° West 394 453 32,000  Level Chicago Center
09:55AM 40.4564 -86.8225 263° West 396 456 32,000  Level Chicago Center
09:56AM 40.4431 -86.9661 263° West 399 459 32,000  Level Chicago Center
09:57AM 40.4289 -87.1097 263° West 399 459 32,000  Level Chicago Center
09:58AM 40.4144 -87.2544 263° West 401 461 32,000  Level Chicago Center
09:59AM 40.3992 -87.4275 263° West 400 460 32,000  Level Chicago Center
10:00AM 40.3856 -87.5636 263° West 402 463 32,000  Level Chicago Center
10:01AM 40.3706 -87.7125 263° West 410 472 32,000  Level Chicago Center
10:02AM 40.3525 -87.8919 263° West 413 475 32,000  Level Chicago Center
10:03AM 40.3375 -88.0453 263° West 420 483 32,000  Level Chicago Center
10:04AM 40.3211 -88.1978 262° West 423 487 32,000  Level Chicago Center
10:05AM 40.3061 -88.3522 263° West 428 493 32,000  Level Chicago Center
10:06AM 40.2864 -88.5200 261° West 428 493 32,000  Level Chicago Center
10:07AM 40.2708 -88.6731 262° West 425 489 32,000 240 Level Chicago Center
10:08AM 40.2542 -88.8269 262° West 426 490 32,500 900 Climbing Chicago Center
10:09AM 40.2367 -88.9806 262° West 426 490 33,900 720 Climbing Chicago Center
10:11AM 40.2194 -89.1336 262° West 425 489 34,000  Climbing Chicago Center
10:12AM 40.2011 -89.2883 261° West 428 493 34,000  Level Chicago Center
10:13AM 40.1836 -89.4414 262° West 425 489 34,000  Level Chicago Center
10:14AM 40.1608 -89.6294 261° West 427 491 34,000  Level Kansas City Center
10:15AM 40.1419 -89.7847 261° West 433 498 34,000  Level Chicago Center
10:16AM 40.1228 -89.9417 261° West 434 499 34,000  Level Chicago Center
10:17AM 40.1036 -90.0986 261° West 436 502 34,000 180 Level Chicago Center
10:18AM 40.0814 -90.2908 261° West 434 499 34,500 600 Climbing Kansas City Center
10:19AM 40.0619 -90.4472 261° West 434 499 35,400 720 Climbing Kansas City Center
10:20AM 40.0408 -90.6056 260° West 437 503 36,000 240 Climbing Kansas City Center
10:21AM 40.0228 -90.7644 262° West 440 506 36,000  Level Kansas City Center
10:22AM 40.0008 -90.9214 260° West 440 506 36,000  Level Kansas City Center
10:23AM 39.9806 -91.0786 260° West 440 506 36,000  Level Kansas City Center
10:24AM 39.9600 -91.2364 260° West 440 506 36,000  Level Kansas City Center
10:25AM 39.9342 -91.4250 260° West 440 506 36,000  Level Kansas City Center
10:26AM 39.9125 -91.5828 260° West 441 507 36,000  Level Kansas City Center
10:27AM 39.8906 -91.7392 260° West 443 510 36,000  Level Kansas City Center
10:28AM 39.8700 -91.8961 260° West 441 507 36,000  Level Kansas City Center
10:29AM 39.8500 -92.0508 260° West 440 506 36,000  Level Kansas City Center
10:30AM 39.8272 -92.2058 259° West 439 505 36,000  Level Kansas City Center
10:31AM 39.8047 -92.3611 259° West 439 505 36,000  Level Kansas City Center
10:32AM 39.7786 -92.5461 260° West 438 504 36,000  Level Kansas City Center
10:33AM 39.7558 -92.6992 259° West 432 497 36,000  Level Kansas City Center
10:34AM 39.7333 -92.8525 259° West 432 497 36,000  Level Kansas City Center
10:35AM 39.7111 -93.0039 259° West 431 496 36,000  Level Kansas City Center
10:36AM 39.6892 -93.1561 259° West 431 496 36,000  Level Kansas City Center
10:37AM 39.6644 -93.3056 258° West 430 495 36,000  Level Kansas City Center
10:38AM 39.6364 -93.4886 259° West 430 495 36,000  Level Kansas City Center
10:40AM 39.6119 -93.6450 259° West 430 495 36,000  Level Kansas City Center
10:41AM 39.5900 -93.7992 260° West 430 495 36,000  Level Kansas City Center
10:42AM 39.5669 -93.9453 258° West 430 495 36,000  Level Kansas City Center
10:43AM 39.5397 -94.1150 258° West 431 496 36,000  Level Kansas City Center
10:44AM 39.5167 -94.2611 258° West 431 496 36,000  Level Kansas City Center
10:45AM 39.4900 -94.4306 259° West 431 496 36,000  Level Kansas City Center
10:46AM 39.4667 -94.5753 258° West 431 496 36,000  Level Kansas City Center
10:47AM 39.4386 -94.7475 258° West 435 501 36,000  Level Kansas City Center
10:48AM 39.4139 -94.8928 258° West 435 501 36,000  Level Kansas City Center
10:49AM 39.3844 -95.0625 257° West 435 501 36,000  Level Kansas City Center
10:50AM 39.3597 -95.2131 258° West 435 501 36,000  Level Kansas City Center
10:51AM 39.3336 -95.3719 258° West 435 501 36,000  Level Kansas City Center
10:52AM 39.3081 -95.5169 257° West 434 499 36,000  Level Kansas City Center
10:53AM 39.2792 -95.6853 258° West 433 498 36,000  Level Kansas City Center
10:54AM 39.2531 -95.8308 257° West 437 503 36,000  Level Kansas City Center
10:55AM 39.2247 -95.9989 258° West 432 497 36,000  Level Kansas City Center
10:56AM 39.1989 -96.1428 257° West 432 497 36,000  Level Kansas City Center
10:57AM 39.1686 -96.3108 257° West 432 497 36,000  Level Kansas City Center
10:58AM 39.1431 -96.4558 257° West 432 497 36,000  Level Kansas City Center
10:59AM 39.1111 -96.6231 256° West 432 497 36,000  Level Kansas City Center
11:00AM 39.0864 -96.7669 258° West 432 497 36,000  Level Kansas City Center
11:01AM 39.0583 -96.9094 256° West 432 497 36,000  Level Kansas City Center
11:03AM 39.0008 -97.2217 257° West 433 498 36,000  Level Kansas City Center
11:04AM 38.9725 -97.3703 256° West 433 498 36,000  Level Kansas City Center
11:05AM 38.9414 -97.5333 256° West 433 498 36,000  Level Kansas City Center
11:06AM 38.9006 -97.6972 252° West 432 497 36,000  Level Kansas City Center
11:07AM 38.8519 -97.8583 249° West 437 503 36,000  Level Kansas City Center
11:08AM 38.8128 -97.9867 249° West 442 509 36,000  Level Kansas City Center
11:09AM 38.7672 -98.1300 248° West 441 507 36,000 60 Level Kansas City Center
11:11AM 38.7128 -98.3036 248° West 441 507 36,200 660 Climbing Kansas City Center
11:12AM 38.6683 -98.4456 248° West 437 503 37,400 840 Climbing Kansas City Center
11:13AM 38.6239 -98.5881 248° West 435 501 38,000 240 Climbing Kansas City Center
11:14AM 38.5781 -98.7319 248° West 437 503 38,000  Level Kansas City Center
11:15AM 38.5333 -98.8767 248° West 440 506 38,000  Level Kansas City Center
11:16AM 38.4772 -99.0511 248° West 441 507 38,000  Level Kansas City Center
11:17AM 38.4317 -99.1969 248° West 442 509 38,000  Level Kansas City Center
11:18AM 38.3833 -99.3406 247° West 443 510 38,000  Level Kansas City Center
11:19AM 38.3364 -99.4847 247° West 443 510 38,000  Level Kansas City Center
11:20AM 38.2825 -99.6483 247° West 441 507 38,000  Level Kansas City Center
11:21AM 38.2392 -99.7853 248° West 440 506 38,000  Level Kansas City Center
11:22AM 38.1847 -99.9436 246° West 439 505 38,000  Level Kansas City Center
11:23AM 38.1394 -100.0786 247° West 438 504 38,000  Level Kansas City Center
11:24AM 38.0858 -100.2386 247° West 438 504 38,000  Level Kansas City Center
11:25AM 38.0403 -100.3733 247° West 438 504 38,000  Level Kansas City Center
11:26AM 37.9872 -100.5292 247° West 437 503 38,000  Level Kansas City Center
11:27AM 37.9414 -100.6625 246° West 435 501 38,000  Level Kansas City Center
11:28AM 37.8903 -100.8156 247° West 431 496 38,000  Level Kansas City Center
11:29AM 37.8486 -100.9453 248° West 427 491 38,000  Level Kansas City Center
11:30AM 37.7997 -101.0933 247° West 420 483 38,000  Level Kansas City Center
11:31AM 37.7583 -101.2189 247° West 414 476 38,000  Level Kansas City Center
11:32AM 37.7100 -101.3656 247° West 412 474 38,000  Level Kansas City Center
11:33AM 37.6683 -101.4917 247° West 411 473 38,000  Level Kansas City Center
11:34AM 37.6194 -101.6400 247° West 410 472 38,000  Level Kansas City Center
11:35AM 37.5764 -101.7686 247° West 412 474 38,000  Level Kansas City Center
11:36AM 37.5261 -101.9192 247° West 415 478 38,000  Level Kansas City Center
11:37AM 37.4836 -102.0492 248° West 416 479 38,000  Level Kansas City Center
11:38AM 37.4328 -102.2006 247° West 417 480 38,000  Level Kansas City Center
11:39AM 37.3900 -102.3289 247° West 417 480 38,000  Level Kansas City Center
11:40AM 37.3594 -102.4253 248° West 416 479 38,000  Level Albuquerque Center
11:41AM 37.3164 -102.5533 247° West 414 476 38,000  Level Albuquerque Center
11:42AM 37.2661 -102.7006 247° West 411 473 38,000  Level Albuquerque Center
11:43AM 37.2222 -102.8244 246° West 406 467 38,000  Level Albuquerque Center
11:44AM 37.1717 -102.9686 246° West 404 465 38,000  Level Albuquerque Center
11:45AM 37.1278 -103.0919 246° West 404 465 38,000  Level Albuquerque Center
11:46AM 37.0864 -103.2125 247° West 397 457 38,000  Level Albuquerque Center
11:47AM 37.0369 -103.3539 246° West 395 455 38,000  Level Albuquerque Center
11:48AM 36.9953 -103.4742 247° West 393 452 38,000  Level Albuquerque Center
11:49AM 36.9467 -103.6144 247° West 392 451 38,000  Level Albuquerque Center
11:50AM 36.9050 -103.7333 246° West 390 449 38,000  Level Albuquerque Center
11:52AM 36.8558 -103.8700 246° West 386 444 38,000  Level Albuquerque Center
11:53AM 36.8153 -103.9856 246° West 382 440 38,000  Level Albuquerque Center
11:54AM 36.7658 -104.1206 245° Southwest 382 440 38,000  Level Albuquerque Center
11:55AM 36.7236 -104.2356 245° Southwest 381 438 38,000  Level Albuquerque Center
11:56AM 36.6756 -104.3697 246° West 380 437 38,000  Level Albuquerque Center
11:57AM 36.6314 -104.4886 245° Southwest 379 436 38,000  Level Albuquerque Center
11:58AM 36.5869 -104.6097 245° Southwest 380 437 38,000  Level Albuquerque Center
11:59AM 36.5419 -104.7303 245° Southwest 382 440 38,000  Level Albuquerque Center
12:00PM 36.4983 -104.8528 246° West 385 443 38,000  Level Albuquerque Center
12:01PM 36.4558 -104.9756 247° West 385 443 38,000  Level Albuquerque Center
12:02PM 36.4156 -105.0986 248° West 383 441 38,000  Level Albuquerque Center
12:03PM 36.3664 -105.2422 247° West 384 442 38,000  Level Albuquerque Center
12:04PM 36.3244 -105.3669 247° West 388 447 38,000  Level Albuquerque Center
12:05PM 36.2833 -105.4889 247° West 384 442 38,000  Level Albuquerque Center
12:06PM 36.2408 -105.6114 247° West 382 440 38,000  Level Albuquerque Center
12:07PM 36.1989 -105.7325 247° West 383 441 38,000  Level Albuquerque Center
12:08PM 36.1581 -105.8542 247° West 384 442 38,000  Level Albuquerque Center
12:09PM 36.1183 -105.9756 248° West 384 442 38,000  Level Albuquerque Center
12:10PM 36.0678 -106.1197 247° West 382 440 38,000  Level Albuquerque Center
12:11PM 36.0258 -106.2400 247° West 382 440 38,000  Level Albuquerque Center
12:12PM 35.9842 -106.3589 247° West 380 437 38,000  Level Albuquerque Center
12:13PM 35.9422 -106.4792 247° West 381 438 38,000  Level Albuquerque Center
12:14PM 35.8936 -106.6167 246° West 383 441 38,000  Level Albuquerque Center
12:15PM 35.8531 -106.7314 246° West 382 440 38,000  Level Albuquerque Center
12:16PM 35.8061 -106.8636 246° West 379 436 38,000  Level Albuquerque Center
12:17PM 35.7653 -106.9786 246° West 381 438 38,000  Level Albuquerque Center
12:18PM 35.7178 -107.1106 246° West 378 435 38,000  Level Albuquerque Center
12:19PM 35.6772 -107.2247 246° West 380 437 38,000  Level Albuquerque Center
12:20PM 35.6381 -107.3403 247° West 381 438 38,000  Level Albuquerque Center
12:22PM 35.5892 -107.4736 246° West 382 440 38,000  Level Albuquerque Center
12:23PM 35.5489 -107.5883 247° West 382 440 38,000  Level Albuquerque Center
12:24PM 35.4994 -107.7239 246° West 387 445 38,000  Level Albuquerque Center
12:25PM 35.4572 -107.8428 246° West 392 451 38,000  Level Albuquerque Center
12:26PM 35.4083 -107.9819 247° West 396 456 38,000  Level Albuquerque Center
12:27PM 35.3636 -108.1025 246° West 401 461 38,000  Level Albuquerque Center
12:28PM 35.3131 -108.2400 246° West 398 458 38,000  Level Albuquerque Center
12:29PM 35.2706 -108.3578 246° West 395 455 38,000  Level Albuquerque Center
12:30PM 35.2211 -108.4914 246° West 388 447 38,000  Level Albuquerque Center
12:31PM 35.1792 -108.6044 246° West 383 441 38,000  Level Albuquerque Center
12:32PM 35.1372 -108.7178 246° West 382 440 38,000  Level Albuquerque Center
12:33PM 35.0881 -108.8492 245° Southwest 381 438 38,000 -300 Level Albuquerque Center
12:34PM 35.0472 -108.9606 246° West 378 435 37,500 -1,500 Descending Albuquerque Center
12:35PM 34.9978 -109.0919 245° Southwest 379 436 35,000 -2,640 Descending Albuquerque Center
12:36PM 34.9536 -109.2094 245° Southwest 387 445 32,000 -2,100 Descending Albuquerque Center
12:37PM 34.8992 -109.3519 245° Southwest 405 466 30,700 -1,020 Descending Albuquerque Center
12:38PM 34.8536 -109.4775 246° West 416 479 30,000 -360 Descending Albuquerque Center
12:39PM 34.7992 -109.6222 245° Southwest 420 483 30,000  Level Albuquerque Center
12:40PM 34.7519 -109.7467 245° Southwest 421 484 30,000  Level Albuquerque Center
12:41PM 34.6967 -109.8906 245° Southwest 421 484 30,000  Level Albuquerque Center
12:42PM 34.6511 -110.0139 246° West 419 482 30,000  Level Albuquerque Center
12:43PM 34.5992 -110.1619 247° West 424 488 30,000  Level Albuquerque Center
12:44PM 34.5553 -110.2872 247° West 423 487 30,000  Level Albuquerque Center
12:45PM 34.5044 -110.4033 242° Southwest 412 474 30,000  Level Albuquerque Center
12:46PM 34.4597 -110.5322 247° West 424 488 30,000 -240 Level Albuquerque Center
12:47PM 34.4019 -110.6825 245° Southwest 415 478 29,600 -1,260 Descending Albuquerque Center
12:48PM 34.3514 -110.7964 242° Southwest 394 453 27,400 -1,860 Descending Albuquerque Center
12:49PM 34.2831 -110.8892 228° Southwest 372 428 25,800 -1,500 Descending Albuquerque Center
12:51PM 34.2122 -110.9814 227° Southwest 373 429 24,300 -1,560 Descending Albuquerque Center
12:52PM 34.1425 -111.0708 227° Southwest 368 423 22,600 -1,860 Descending Albuquerque Center
12:53PM 34.0764 -111.1567 227° Southwest 357 411 20,500 -2,100 Descending Albuquerque Center
12:54PM 34.0036 -111.2500 227° Southwest 324 373 18,300 -1,860 Descending Albuquerque Center
12:55PM 33.9469 -111.3231 227° Southwest 302 348 16,700 -1,500 Descending Albuquerque Center
12:56PM 33.8892 -111.3978 227° Southwest 302 348 15,300 -1,260 Descending Albuquerque Center
12:57PM 33.8419 -111.4814 236° Southwest 299 344 14,100 -1,440 Descending Albuquerque Center
12:58PM 33.7967 -111.5672 238° Southwest 303 349 12,400 -1,560 Descending Albuquerque Center
12:59PM 33.7525 -111.6519 238° Southwest 297 342 10,900 -1,260 Descending Albuquerque Center
01:00PM 33.7097 -111.7347 238° Southwest 291 335 9,900 -840 Descending Albuquerque Center
01:01PM 33.6564 -111.8253 235° Southwest 277 319 9,200 -420 Descending Albuquerque Center
01:02PM 33.6131 -111.9039 237° Southwest 280 322 9,100 -420 Descending Albuquerque Center
01:02PM 33.5833 -111.9500 232° Southwest 280 322 8,600 -1,320 Descending Phoenix TRACON
01:03PM 33.5500 -112.0333 244° Southwest 274 315 7,000 -1,740 Descending Phoenix TRACON
01:04PM 33.5333 -112.1167 257° West 264 304 5,200 -1,380 Descending Phoenix TRACON
01:05PM 33.5253 -112.1458 252° West 262 302 5,000 -720 Descending Albuquerque Center
01:06PM 33.4822 -112.1825 215° Southwest 214 246 4,100 -960 Descending Albuquerque Center
01:07PM 33.4456 -112.1500 144° Southeast 177 204 3,100 -1,020 Descending Albuquerque Center
01:08PM 33.4408 -112.0858 95° East 160 184 2,100 -840 Descending Albuquerque Center
01:09PM 33.4403 -112.0375 91° East 137 158 1,400 -540 Descending Albuquerque Center
01:10PM 33.4411 -112.0008 88° East 133 153 1,100 -300 Descending Albuquerque Center